createdAt,value
2022-10-23T00:01:16.618Z,13.20
2022-10-23T00:03:45.480Z,13.20
2022-10-23T00:06:14.256Z,13.20
2022-10-23T00:08:44.209Z,13.10
2022-10-23T00:11:14.669Z,13.10
2022-10-23T00:13:42.733Z,13.10
2022-10-23T00:16:11.178Z,13.10
2022-10-23T00:18:40.008Z,13.10
2022-10-23T00:21:09.413Z,13.10
2022-10-23T00:23:37.380Z,13.10
2022-10-23T00:26:08.067Z,13.00
2022-10-23T00:28:36.095Z,13.00
2022-10-23T00:31:04.651Z,13.00
2022-10-23T00:33:32.853Z,13.00
2022-10-23T00:36:00.809Z,13.00
2022-10-23T00:38:28.704Z,12.90
2022-10-23T00:40:56.636Z,12.90
2022-10-23T00:43:28.200Z,12.90
2022-10-23T00:45:56.908Z,12.90
2022-10-23T00:48:25.001Z,12.90
2022-10-23T00:50:53.357Z,12.90
2022-10-23T00:53:22.817Z,12.90
2022-10-23T00:55:54.865Z,12.90
2022-10-23T00:58:24.778Z,12.90
2022-10-23T01:00:55.608Z,12.90
2022-10-23T01:03:26.974Z,12.80
2022-10-23T01:06:01.312Z,12.90
2022-10-23T01:08:33.372Z,12.90
2022-10-23T01:11:06.372Z,12.80
2022-10-23T01:13:42.643Z,12.80
2022-10-23T01:16:17.785Z,12.80
2022-10-23T01:18:48.816Z,12.80
2022-10-23T01:21:23.208Z,12.80
2022-10-23T01:24:08.934Z,12.80
2022-10-23T01:26:56.289Z,12.80
2022-10-23T01:29:33.207Z,12.80
2022-10-23T01:32:06.563Z,12.80
2022-10-23T01:34:44.646Z,12.80
2022-10-23T01:37:16.075Z,12.70
2022-10-23T01:39:49.065Z,12.80
2022-10-23T01:42:20.848Z,12.80
2022-10-23T01:44:54.733Z,12.80
2022-10-23T01:47:26.913Z,12.80
2022-10-23T01:49:57.003Z,12.80
2022-10-23T01:52:25.102Z,12.80
2022-10-23T01:54:56.035Z,12.80
2022-10-23T01:57:26.580Z,12.80
2022-10-23T02:00:00.834Z,12.80
2022-10-23T02:02:29.520Z,12.80
2022-10-23T02:05:02.759Z,12.80
2022-10-23T02:07:31.354Z,12.80
2022-10-23T02:09:59.788Z,12.80
2022-10-23T02:12:34.625Z,12.80
2022-10-23T02:15:10.547Z,12.80
2022-10-23T02:17:45.975Z,12.80
2022-10-23T02:20:20.949Z,12.80
2022-10-23T02:22:56.819Z,12.80
2022-10-23T02:25:33.205Z,12.80
2022-10-23T02:28:06.722Z,12.80
2022-10-23T02:30:38.658Z,12.80
2022-10-23T02:33:07.488Z,12.80
2022-10-23T02:35:35.635Z,12.80
2022-10-23T02:38:03.607Z,12.90
2022-10-23T02:40:37.926Z,12.80
2022-10-23T02:43:11.876Z,12.80
2022-10-23T02:45:48.406Z,12.90
2022-10-23T02:48:21.778Z,12.90
2022-10-23T02:50:57.871Z,12.90
2022-10-23T02:53:32.936Z,12.90
2022-10-23T02:56:09.041Z,12.90
2022-10-23T02:58:44.585Z,12.90
2022-10-23T03:01:17.542Z,12.90
2022-10-23T03:03:49.580Z,12.90
2022-10-23T03:06:17.941Z,12.90
2022-10-23T03:08:50.146Z,12.90
2022-10-23T03:11:18.081Z,12.90
2022-10-23T03:13:46.219Z,12.90
2022-10-23T03:16:15.519Z,12.90
2022-10-23T03:18:43.408Z,12.90
2022-10-23T03:21:11.335Z,12.90
2022-10-23T03:23:39.295Z,12.90
2022-10-23T03:26:07.339Z,12.90
2022-10-23T03:28:36.167Z,12.90
2022-10-23T03:31:04.123Z,12.90
2022-10-23T03:33:33.949Z,12.90
2022-10-23T03:36:01.810Z,13.00
2022-10-23T03:38:29.719Z,13.00
2022-10-23T03:40:57.564Z,13.00
2022-10-23T03:43:25.447Z,13.00
2022-10-23T03:45:53.300Z,13.00
2022-10-23T03:48:21.160Z,13.00
2022-10-23T03:50:50.386Z,13.00
2022-10-23T03:53:18.358Z,13.10
2022-10-23T03:55:46.688Z,13.10
2022-10-23T03:58:14.547Z,13.10
2022-10-23T04:03:15.473Z,13.10
2022-10-23T04:05:43.944Z,13.10
2022-10-23T04:08:16.390Z,13.10
2022-10-23T04:10:47.888Z,13.10
2022-10-23T04:13:15.835Z,13.10
2022-10-23T04:15:49.611Z,13.10
2022-10-23T04:18:17.638Z,13.10
2022-10-23T04:20:47.985Z,13.10
2022-10-23T04:23:17.612Z,13.10
2022-10-23T04:25:45.746Z,13.10
2022-10-23T04:28:13.766Z,13.10
2022-10-23T04:30:41.649Z,13.10
2022-10-23T04:33:09.614Z,13.10
2022-10-23T04:35:37.476Z,13.10
2022-10-23T04:38:05.380Z,13.10
2022-10-23T04:40:34.751Z,13.10
2022-10-23T04:43:02.821Z,13.10
2022-10-23T04:45:30.770Z,13.10
2022-10-23T04:47:58.624Z,13.10
2022-10-23T04:50:26.620Z,13.10
2022-10-23T04:52:55.643Z,13.10
2022-10-23T04:55:25.395Z,13.10
2022-10-23T04:57:54.629Z,13.10
2022-10-23T05:00:22.563Z,13.10
2022-10-23T05:02:50.463Z,13.10
2022-10-23T05:05:19.191Z,13.10
2022-10-23T05:07:47.360Z,13.10
2022-10-23T05:10:15.288Z,13.10
2022-10-23T05:12:43.140Z,13.10
2022-10-23T05:15:12.613Z,13.10
2022-10-23T05:17:44.797Z,13.00
2022-10-23T05:20:18.211Z,13.10
2022-10-23T05:22:48.791Z,13.00
2022-10-23T05:25:16.992Z,13.00
2022-10-23T05:27:45.184Z,13.00
2022-10-23T05:30:15.354Z,13.00
2022-10-23T05:32:43.614Z,13.00
2022-10-23T05:35:15.648Z,13.00
2022-10-23T05:37:46.451Z,13.00
2022-10-23T05:40:14.500Z,13.00
2022-10-23T05:42:42.725Z,12.90
2022-10-23T05:45:11.791Z,12.90
2022-10-23T05:47:40.959Z,12.90
2022-10-23T05:50:09.451Z,12.90
2022-10-23T05:52:37.388Z,12.90
2022-10-23T05:55:05.818Z,12.80
2022-10-23T05:57:34.269Z,12.80
2022-10-23T06:00:02.267Z,12.80
2022-10-23T06:02:30.187Z,12.80
2022-10-23T06:04:59.473Z,12.80
2022-10-23T06:07:32.435Z,12.80
2022-10-23T06:10:02.988Z,12.80
2022-10-23T06:12:32.132Z,12.80
2022-10-23T06:15:00.041Z,12.80
2022-10-23T06:17:28.922Z,12.90
2022-10-23T06:20:02.321Z,12.80
2022-10-23T06:22:31.656Z,12.90
2022-10-23T06:24:59.554Z,12.90
2022-10-23T06:27:27.392Z,12.90
2022-10-23T06:29:55.244Z,12.90
2022-10-23T06:32:23.220Z,12.90
2022-10-23T06:34:51.089Z,12.90
2022-10-23T06:37:18.953Z,13.00
2022-10-23T06:39:48.145Z,13.00
2022-10-23T06:42:16.046Z,13.00
2022-10-23T06:44:43.974Z,13.10
2022-10-23T06:47:14.030Z,13.10
2022-10-23T06:49:42.053Z,13.20
2022-10-23T06:52:14.510Z,13.20
2022-10-23T06:54:52.492Z,13.30
2022-10-23T06:57:20.328Z,13.30
2022-10-23T06:59:48.273Z,13.40
2022-10-23T07:02:16.098Z,13.50
2022-10-23T07:04:43.960Z,13.50
2022-10-23T07:07:11.788Z,13.60
2022-10-23T07:09:39.815Z,13.60
2022-10-23T07:12:10.649Z,13.70
2022-10-23T07:14:38.540Z,13.80
2022-10-23T07:17:06.421Z,13.80
2022-10-23T07:19:34.340Z,13.80
2022-10-23T07:22:02.215Z,13.90
2022-10-23T07:24:31.411Z,13.90
2022-10-23T07:26:59.773Z,14.00
2022-10-23T07:29:31.340Z,14.00
2022-10-23T07:32:00.811Z,14.10
2022-10-23T07:34:28.844Z,14.10
2022-10-23T07:36:56.970Z,14.20
2022-10-23T07:39:25.223Z,14.30
2022-10-23T07:41:53.137Z,14.30
2022-10-23T07:44:23.129Z,14.40
2022-10-23T07:46:54.943Z,14.40
2022-10-23T07:49:23.066Z,14.40
2022-10-23T07:51:52.774Z,14.50
2022-10-23T07:54:20.727Z,14.50
2022-10-23T07:56:48.614Z,14.50
2022-10-23T07:59:16.674Z,14.50
2022-10-23T08:01:45.763Z,14.50
2022-10-23T08:04:15.244Z,14.50
2022-10-23T08:06:43.339Z,14.60
2022-10-23T08:09:11.369Z,14.70
2022-10-23T08:11:39.354Z,14.80
2022-10-23T08:14:08.206Z,15.00
2022-10-23T08:16:38.017Z,15.10
2022-10-23T08:19:07.425Z,15.10
2022-10-23T08:21:36.700Z,15.30
2022-10-23T08:24:05.546Z,15.40
2022-10-23T08:26:33.492Z,15.40
2022-10-23T08:29:01.697Z,15.50
2022-10-23T08:31:29.669Z,15.60
2022-10-23T08:33:57.827Z,15.70
2022-10-23T08:36:28.175Z,15.80
2022-10-23T08:38:59.091Z,15.90
2022-10-23T08:41:32.037Z,16.00
2022-10-23T08:44:06.521Z,16.10
2022-10-23T08:46:40.947Z,16.20
2022-10-23T08:49:27.893Z,16.30
2022-10-23T08:51:58.582Z,16.60
2022-10-23T08:54:35.008Z,17.10
2022-10-23T08:57:10.296Z,17.60
2022-10-23T08:59:44.942Z,18.10
2022-10-23T09:02:18.835Z,18.60
2022-10-23T09:04:51.798Z,19.00
2022-10-23T09:07:29.594Z,19.50
2022-10-23T09:10:07.258Z,19.90
2022-10-23T09:12:35.181Z,20.10
2022-10-23T09:15:18.515Z,20.50
2022-10-23T09:17:48.862Z,21.10
2022-10-23T09:20:22.146Z,21.50
2022-10-23T09:22:54.096Z,21.90
2022-10-23T09:25:25.417Z,22.20
2022-10-23T09:27:57.446Z,22.20
2022-10-23T09:30:30.428Z,21.80
2022-10-23T09:32:58.385Z,21.40
2022-10-23T09:35:29.662Z,21.30
2022-10-23T09:37:58.030Z,21.20
2022-10-23T09:40:37.615Z,21.20
2022-10-23T09:43:15.231Z,21.30
2022-10-23T09:45:43.177Z,21.40
2022-10-23T09:48:15.516Z,21.60
2022-10-23T09:50:54.773Z,21.80
2022-10-23T09:53:35.229Z,21.50
2022-10-23T09:56:11.725Z,21.30
2022-10-23T09:58:52.934Z,20.90
2022-10-23T10:01:25.359Z,20.60
2022-10-23T10:03:53.825Z,20.40
2022-10-23T10:06:27.129Z,20.10
2022-10-23T10:08:57.397Z,20.00
2022-10-23T10:11:37.355Z,19.80
2022-10-23T10:14:23.451Z,19.60
2022-10-23T10:16:53.728Z,19.50
2022-10-23T10:19:37.727Z,19.40
2022-10-23T10:22:17.632Z,19.20
2022-10-23T10:24:53.246Z,19.10
2022-10-23T10:27:33.160Z,19.00
2022-10-23T10:30:09.477Z,19.00
2022-10-23T10:32:44.580Z,18.80
2022-10-23T10:35:26.504Z,18.80
2022-10-23T10:38:15.808Z,18.80
2022-10-23T10:40:48.696Z,18.70
2022-10-23T10:43:29.336Z,18.70
2022-10-23T10:46:06.108Z,18.60
2022-10-23T10:48:46.073Z,18.60
2022-10-23T10:51:22.286Z,18.50
2022-10-23T10:54:04.026Z,18.50
2022-10-23T10:56:36.131Z,18.40
2022-10-23T10:59:13.259Z,18.40
2022-10-23T11:01:47.343Z,18.30
2022-10-23T11:04:23.364Z,18.30
2022-10-23T11:06:54.041Z,18.30
2022-10-23T11:09:26.159Z,18.30
2022-10-23T11:11:54.197Z,18.30
2022-10-23T11:14:25.334Z,18.30
2022-10-23T11:17:04.513Z,18.30
2022-10-23T11:19:37.942Z,18.30
2022-10-23T11:22:11.953Z,18.20
2022-10-23T11:25:04.809Z,18.20
2022-10-23T11:27:46.744Z,18.20
2022-10-23T11:30:24.692Z,18.10
2022-10-23T11:33:42.665Z,18.00
2022-10-23T11:36:16.936Z,18.00
2022-10-23T11:38:47.229Z,18.10
2022-10-23T11:41:23.813Z,18.10
2022-10-23T11:43:57.086Z,18.10
2022-10-23T11:46:35.043Z,18.20
2022-10-23T11:49:05.824Z,18.30
2022-10-23T11:51:36.384Z,18.50
2022-10-23T11:54:28.153Z,18.60
2022-10-23T11:57:10.865Z,18.80
2022-10-23T11:59:54.434Z,18.90
2022-10-23T12:02:33.497Z,19.00
2022-10-23T12:05:06.719Z,19.10
2022-10-23T12:07:37.884Z,19.20
2022-10-23T12:10:08.053Z,19.30
2022-10-23T12:12:40.797Z,19.30
2022-10-23T12:15:21.595Z,19.40
2022-10-23T12:17:52.447Z,19.40
2022-10-23T12:20:31.848Z,19.50
2022-10-23T12:23:16.069Z,19.50
2022-10-23T12:26:02.338Z,19.60
2022-10-23T12:28:38.009Z,19.60
2022-10-23T12:31:21.606Z,19.50
2022-10-23T12:34:01.937Z,19.40
2022-10-23T12:36:52.856Z,19.40
2022-10-23T12:39:28.165Z,19.50
2022-10-23T12:41:56.461Z,19.40
2022-10-23T12:44:25.388Z,19.40
2022-10-23T12:46:57.323Z,19.40
2022-10-23T12:49:28.210Z,19.40
2022-10-23T12:51:57.511Z,19.30
2022-10-23T12:54:25.671Z,19.40
2022-10-23T12:56:54.252Z,19.40
2022-10-23T12:59:26.255Z,19.40
2022-10-23T13:01:55.351Z,19.30
2022-10-23T13:04:30.294Z,19.30
2022-10-23T13:06:59.834Z,19.30
2022-10-23T13:09:32.169Z,19.30
2022-10-23T13:12:02.048Z,19.20
2022-10-23T13:14:33.894Z,19.20
2022-10-23T13:17:03.373Z,19.20
2022-10-23T13:19:32.998Z,19.10
2022-10-23T13:22:02.230Z,19.20
2022-10-23T13:24:31.607Z,19.20
2022-10-23T13:27:00.100Z,19.20
2022-10-23T13:29:30.281Z,19.20
2022-10-23T13:31:58.691Z,19.20
2022-10-23T13:34:29.063Z,19.20
2022-10-23T13:37:00.952Z,19.30
2022-10-23T13:39:31.233Z,19.30
2022-10-23T13:42:06.773Z,19.30
2022-10-23T13:44:37.240Z,19.40
2022-10-23T13:47:06.397Z,19.40
2022-10-23T13:49:34.324Z,19.40
2022-10-23T13:52:03.763Z,19.40
2022-10-23T13:54:31.873Z,19.40
2022-10-23T13:56:59.800Z,19.40
2022-10-23T13:59:27.684Z,19.40
2022-10-23T14:01:55.848Z,19.30
2022-10-23T14:04:23.929Z,19.30
2022-10-23T14:06:58.253Z,19.30
2022-10-23T14:09:27.613Z,19.30
2022-10-23T14:11:55.504Z,19.20
2022-10-23T14:14:23.397Z,19.20
2022-10-23T14:16:52.758Z,19.30
2022-10-23T14:19:20.648Z,19.20
2022-10-23T14:21:48.533Z,19.20
2022-10-23T14:24:16.382Z,19.20
2022-10-23T14:26:45.851Z,19.20
2022-10-23T14:29:21.383Z,19.20
2022-10-23T14:31:51.209Z,19.20
2022-10-23T14:34:19.110Z,19.20
2022-10-23T14:36:56.742Z,19.10
2022-10-23T14:39:32.022Z,19.10
2022-10-23T14:42:01.295Z,19.10
2022-10-23T14:44:29.403Z,19.00
2022-10-23T14:46:58.622Z,19.00
2022-10-23T14:49:26.633Z,18.90
2022-10-23T14:51:54.583Z,18.90
2022-10-23T14:54:22.544Z,18.90
2022-10-23T14:56:50.572Z,18.90
2022-10-23T14:59:19.822Z,18.80
2022-10-23T15:01:48.612Z,18.80
2022-10-23T15:04:17.255Z,18.80
2022-10-23T15:06:46.322Z,18.70
2022-10-23T15:09:14.650Z,18.70
2022-10-23T15:11:42.742Z,18.70
2022-10-23T15:14:10.670Z,18.70
2022-10-23T15:16:42.076Z,18.60
2022-10-23T15:19:13.571Z,18.60
2022-10-23T15:21:45.328Z,18.60
2022-10-23T15:24:13.227Z,18.60
2022-10-23T15:26:43.073Z,18.60
2022-10-23T15:29:12.245Z,18.60
2022-10-23T15:31:55.384Z,18.60
2022-10-23T15:34:25.240Z,18.60
2022-10-23T15:36:54.241Z,18.60
2022-10-23T15:39:24.320Z,18.60
2022-10-23T15:41:54.136Z,18.60
2022-10-23T15:44:24.246Z,18.60
2022-10-23T15:46:53.394Z,18.60
2022-10-23T15:49:21.402Z,18.60
2022-10-23T15:51:49.278Z,18.60
2022-10-23T15:54:19.114Z,18.60
2022-10-23T15:56:48.123Z,18.60
2022-10-23T15:59:16.706Z,18.60
2022-10-23T16:01:44.799Z,18.70
2022-10-23T16:04:15.446Z,18.60
2022-10-23T16:06:43.865Z,18.60
2022-10-23T16:09:12.106Z,18.60
2022-10-23T16:11:41.844Z,18.60
2022-10-23T16:14:13.346Z,18.60
2022-10-23T16:16:43.619Z,18.60
2022-10-23T16:19:12.367Z,18.50
2022-10-23T16:21:42.269Z,18.50
2022-10-23T16:24:10.843Z,18.50
2022-10-23T16:26:39.649Z,18.50
2022-10-23T16:29:09.909Z,18.50
2022-10-23T16:31:37.972Z,18.40
2022-10-23T16:34:06.647Z,18.40
2022-10-23T16:36:34.781Z,18.40
2022-10-23T16:39:05.296Z,18.40
2022-10-23T16:41:33.341Z,18.40
2022-10-23T16:44:01.308Z,18.30
2022-10-23T16:46:29.233Z,18.30
2022-10-23T16:48:57.351Z,18.30
2022-10-23T16:51:27.240Z,18.30
2022-10-23T16:53:55.212Z,18.20
2022-10-23T16:56:27.750Z,18.10
2022-10-23T16:58:55.963Z,17.90
2022-10-23T17:01:25.846Z,17.80
2022-10-23T17:03:55.186Z,17.70
2022-10-23T17:06:24.919Z,17.60
2022-10-23T17:08:53.291Z,17.50
2022-10-23T17:11:26.880Z,17.50
2022-10-23T17:13:59.189Z,17.40
2022-10-23T17:16:29.385Z,17.30
2022-10-23T17:18:57.658Z,17.30
2022-10-23T17:21:25.671Z,17.20
2022-10-23T17:23:54.485Z,17.20
2022-10-23T17:26:24.684Z,17.10
2022-10-23T17:28:53.132Z,17.10
2022-10-23T17:31:23.066Z,17.10
2022-10-23T17:33:52.987Z,17.00
2022-10-23T17:36:22.592Z,17.00
2022-10-23T17:38:50.661Z,17.00
2022-10-23T17:41:22.229Z,16.90
2022-10-23T17:43:51.922Z,16.90
2022-10-23T17:46:20.021Z,16.90
2022-10-23T17:48:48.277Z,16.90
2022-10-23T17:51:18.452Z,16.80
2022-10-23T17:53:48.143Z,16.80
2022-10-23T17:56:19.104Z,16.80
2022-10-23T17:58:47.497Z,16.80
2022-10-23T18:01:19.618Z,16.80
2022-10-23T18:03:47.806Z,16.70
2022-10-23T18:06:18.848Z,16.60
2022-10-23T18:08:47.683Z,16.60
2022-10-23T18:11:17.871Z,16.60
2022-10-23T18:13:46.200Z,16.60
2022-10-23T18:16:16.218Z,16.60
2022-10-23T18:18:48.029Z,16.50
2022-10-23T18:21:17.394Z,16.60
2022-10-23T18:23:45.727Z,16.50
2022-10-23T18:26:16.980Z,16.50
2022-10-23T18:28:45.523Z,16.50
2022-10-23T18:31:13.892Z,16.50
2022-10-23T18:33:43.252Z,16.40
2022-10-23T18:36:16.900Z,16.30
2022-10-23T18:38:45.008Z,16.30
2022-10-23T18:41:13.052Z,16.30
2022-10-23T18:43:44.119Z,16.20
2022-10-23T18:46:13.146Z,16.20
2022-10-23T18:48:41.123Z,16.10
2022-10-23T18:51:16.203Z,16.10
2022-10-23T18:53:46.895Z,16.10
2022-10-23T18:56:15.898Z,16.00
2022-10-23T18:58:43.886Z,16.00
2022-10-23T19:01:11.850Z,15.90
2022-10-23T19:03:39.826Z,15.90
2022-10-23T19:06:08.306Z,15.90
2022-10-23T19:08:38.720Z,15.90
2022-10-23T19:11:07.979Z,15.90
2022-10-23T19:13:39.175Z,15.90
2022-10-23T19:16:09.805Z,15.80
2022-10-23T19:18:39.426Z,15.80
2022-10-23T19:21:07.774Z,15.80
2022-10-23T19:23:36.491Z,15.80
2022-10-23T19:26:08.968Z,15.80
2022-10-23T19:28:37.919Z,15.70
2022-10-23T19:31:07.596Z,15.70
2022-10-23T19:33:36.119Z,15.70
2022-10-23T19:36:05.408Z,15.60
2022-10-23T19:38:34.151Z,15.60
2022-10-23T19:41:03.742Z,15.50
2022-10-23T19:43:33.003Z,15.50
2022-10-23T19:46:03.968Z,15.40
2022-10-23T19:48:34.541Z,15.40
2022-10-23T19:51:02.543Z,15.40
2022-10-23T19:53:30.680Z,15.40
2022-10-23T19:56:09.403Z,15.30
2022-10-23T19:58:39.038Z,15.30
2022-10-23T20:01:12.775Z,15.30
2022-10-23T20:03:41.363Z,15.20
2022-10-23T20:06:10.923Z,15.20
2022-10-23T20:08:38.926Z,15.20
2022-10-23T20:11:07.443Z,15.20
2022-10-23T20:13:35.739Z,15.10
2022-10-23T20:16:05.430Z,15.10
2022-10-23T20:18:33.358Z,15.10
2022-10-23T20:21:03.203Z,15.10
2022-10-23T20:23:31.081Z,15.10
2022-10-23T20:26:05.652Z,15.10
2022-10-23T20:28:33.784Z,15.10
2022-10-23T20:31:05.171Z,15.10
2022-10-23T20:33:34.402Z,15.10
2022-10-23T20:36:02.476Z,15.10
2022-10-23T20:38:30.425Z,15.10
2022-10-23T20:41:00.357Z,15.10
2022-10-23T20:43:28.307Z,15.10
2022-10-23T20:45:56.246Z,15.10
2022-10-23T20:48:24.118Z,15.10
2022-10-23T20:50:53.407Z,15.10
2022-10-23T20:53:21.321Z,15.10
2022-10-23T20:55:49.207Z,15.20
2022-10-23T20:58:17.164Z,15.20
2022-10-23T21:00:45.121Z,15.20
2022-10-23T21:03:13.048Z,15.30
2022-10-23T21:05:40.979Z,15.40
2022-10-23T21:08:10.477Z,15.50
2022-10-23T21:10:45.268Z,15.50
2022-10-23T21:13:13.517Z,15.60
2022-10-23T21:15:41.385Z,15.60
2022-10-23T21:18:26.391Z,15.70
2022-10-23T21:21:02.219Z,15.70
2022-10-23T21:23:31.541Z,15.80
2022-10-23T21:26:02.191Z,15.80
2022-10-23T21:28:33.500Z,15.90
2022-10-23T21:31:04.548Z,15.90
2022-10-23T21:33:33.042Z,16.00
2022-10-23T21:36:11.836Z,16.00
2022-10-23T21:38:43.565Z,16.00
2022-10-23T21:41:13.743Z,16.00
2022-10-23T21:43:41.968Z,16.00
2022-10-23T21:46:14.470Z,16.00
2022-10-23T21:48:42.920Z,16.00
2022-10-23T21:51:17.055Z,15.90
2022-10-23T21:53:46.333Z,15.90
2022-10-23T21:56:26.998Z,15.90
2022-10-23T21:58:55.233Z,15.90
2022-10-23T22:01:23.326Z,15.90
2022-10-23T22:03:51.591Z,15.90
2022-10-23T22:06:22.053Z,15.90
2022-10-23T22:08:53.214Z,15.90
2022-10-23T22:11:21.257Z,15.90
2022-10-23T22:13:49.535Z,15.80
2022-10-23T22:16:18.121Z,15.80
2022-10-23T22:18:46.045Z,15.80
2022-10-23T22:21:16.029Z,15.80
2022-10-23T22:23:44.446Z,15.90
2022-10-23T22:26:21.447Z,15.90
2022-10-23T22:28:49.480Z,15.90
2022-10-23T22:31:18.997Z,15.90
2022-10-23T22:33:47.042Z,15.90
2022-10-23T22:36:14.999Z,15.90
2022-10-23T22:38:43.478Z,15.90
2022-10-23T22:41:13.165Z,15.90
2022-10-23T22:43:41.540Z,15.80
2022-10-23T22:46:11.862Z,15.80
2022-10-23T22:48:40.218Z,15.70
2022-10-23T22:51:09.889Z,15.70
2022-10-23T22:53:37.850Z,15.60
2022-10-23T22:56:08.399Z,15.60
2022-10-23T22:58:38.473Z,15.60
2022-10-23T23:01:09.670Z,15.50
2022-10-23T23:03:38.526Z,15.50
2022-10-23T23:06:07.963Z,15.50
2022-10-23T23:08:38.468Z,15.40
2022-10-23T23:11:07.853Z,15.40
2022-10-23T23:13:37.681Z,15.40
2022-10-23T23:16:06.317Z,15.30
2022-10-23T23:18:35.323Z,15.30
2022-10-23T23:21:03.329Z,15.40
2022-10-23T23:23:31.631Z,15.40
2022-10-23T23:25:59.556Z,15.40
2022-10-23T23:28:27.462Z,15.50
2022-10-23T23:31:06.393Z,15.50
2022-10-23T23:33:34.436Z,15.50
2022-10-23T23:36:06.314Z,15.50
2022-10-23T23:38:34.234Z,15.60
2022-10-23T23:41:02.239Z,15.60
2022-10-23T23:43:30.732Z,15.60
2022-10-23T23:46:00.211Z,15.60
2022-10-23T23:48:29.526Z,15.70
2022-10-23T23:50:57.442Z,15.70
2022-10-23T23:53:25.692Z,15.60
2022-10-23T23:55:53.592Z,15.60
2022-10-23T23:58:21.483Z,15.60
